sensor_id;sensor_type;location;lat;lon;timestamp;pressure;altitude;pressure_sealevel;temperature;humidity
20145;BME280;10233;50.814;6.590;2022-07-23T00:00:17;100416.56;;;21.43;100.00
20145;BME280;10233;50.814;6.590;2022-07-23T00:01:19;100410.06;;;21.49;100.00
20145;BME280;10233;50.814;6.590;2022-07-23T00:02:20;100416.03;;;21.41;100.00
20145;BME280;10233;50.814;6.590;2022-07-23T00:03:20;100411.97;;;21.49;100.00
20145;BME280;10233;50.814;6.590;2022-07-23T00:04:21;100414.94;;;21.42;100.00
20145;BME280;10233;50.814;6.590;2022-07-23T00:05:21;100419.53;;;21.37;100.00
20145;BME280;10233;50.814;6.590;2022-07-23T00:06:23;100415.44;;;21.24;100.00
20145;BME280;10233;50.814;6.590;2022-07-23T00:07:23;100420.84;;;21.19;100.00
20145;BME280;10233;50.814;6.590;2022-07-23T00:08:24;100420.81;;;21.09;100.00
20145;BME280;10233;50.814;6.590;2022-07-23T00:09:24;100418.94;;;21.10;100.00
20145;BME280;10233;50.814;6.590;2022-07-23T00:10:25;100420.25;;;21.02;100.00
20145;BME280;10233;50.814;6.590;2022-07-23T00:11:25;100427.97;;;20.84;100.00
20145;BME280;10233;50.814;6.590;2022-07-23T00:12:26;100433.63;;;20.77;100.00
20145;BME280;10233;50.814;6.590;2022-07-23T00:13:27;100429.84;;;20.73;100.00
20145;BME280;10233;50.814;6.590;2022-07-23T00:14:27;100435.28;;;20.78;100.00
20145;BME280;10233;50.814;6.590;2022-07-23T00:15:28;100418.50;;;20.76;100.00
20145;BME280;10233;50.814;6.590;2022-07-23T00:16:29;100423.59;;;20.68;100.00
20145;BME280;10233;50.814;6.590;2022-07-23T00:17:30;100427.91;;;20.64;100.00
20145;BME280;10233;50.814;6.590;2022-07-23T00:18:30;100425.16;;;20.59;100.00
20145;BME280;10233;50.814;6.590;2022-07-23T00:19:31;100426.22;;;20.53;100.00
20145;BME280;10233;50.814;6.590;2022-07-23T00:20:31;100422.41;;;20.49;100.00
20145;BME280;10233;50.814;6.590;2022-07-23T00:21:32;100414.06;;;20.55;100.00
20145;BME280;10233;50.814;6.590;2022-07-23T00:22:32;100408.47;;;20.67;100.00
20145;BME280;10233;50.814;6.590;2022-07-23T00:23:33;100395.25;;;20.75;100.00
20145;BME280;10233;50.814;6.590;2022-07-23T00:24:33;100388.84;;;20.91;100.00
20145;BME280;10233;50.814;6.590;2022-07-23T00:25:34;100391.03;;;20.94;100.00
20145;BME280;10233;50.814;6.590;2022-07-23T00:26:34;100395.91;;;20.92;100.00
20145;BME280;10233;50.814;6.590;2022-07-23T00:27:35;100396.91;;;20.86;100.00
20145;BME280;10233;50.814;6.590;2022-07-23T00:28:35;100400.16;;;20.83;100.00
20145;BME280;10233;50.814;6.590;2022-07-23T00:29:36;100401.75;;;20.79;100.00
20145;BME280;10233;50.814;6.590;2022-07-23T00:30:37;100409.84;;;20.74;100.00
20145;BME280;10233;50.814;6.590;2022-07-23T00:31:37;100400.88;;;20.69;100.00
20145;BME280;10233;50.814;6.590;2022-07-23T00:32:53;100403.25;;;20.50;100.00
20145;BME280;10233;50.814;6.590;2022-07-23T00:33:54;100391.03;;;20.43;100.00
20145;BME280;10233;50.814;6.590;2022-07-23T00:34:57;100398.34;;;20.47;100.00
20145;BME280;10233;50.814;6.590;2022-07-23T00:35:57;100388.38;;;20.53;100.00
20145;BME280;10233;50.814;6.590;2022-07-23T00:36:58;100384.56;;;20.44;100.00
20145;BME280;10233;50.814;6.590;2022-07-23T00:37:59;100394.66;;;20.58;100.00
20145;BME280;10233;50.814;6.590;2022-07-23T00:38:59;100390.25;;;20.52;100.00
20145;BME280;10233;50.814;6.590;2022-07-23T00:40:00;100396.50;;;20.53;100.00
20145;BME280;10233;50.814;6.590;2022-07-23T00:41:00;100397.56;;;20.47;100.00
20145;BME280;10233;50.814;6.590;2022-07-23T00:42:01;100402.31;;;20.30;100.00
20145;BME280;10233;50.814;6.590;2022-07-23T00:43:02;100400.63;;;20.19;100.00
20145;BME280;10233;50.814;6.590;2022-07-23T00:45:20;100406.41;;;19.69;100.00
20145;BME280;10233;50.814;6.590;2022-07-23T00:46:22;100411.53;;;19.66;100.00
20145;BME280;10233;50.814;6.590;2022-07-23T00:47:22;100411.78;;;19.64;100.00
20145;BME280;10233;50.814;6.590;2022-07-23T00:48:23;100407.75;;;19.67;100.00
20145;BME280;10233;50.814;6.590;2022-07-23T00:49:27;100403.31;;;19.82;100.00
20145;BME280;10233;50.814;6.590;2022-07-23T00:50:29;100398.47;;;19.89;100.00
20145;BME280;10233;50.814;6.590;2022-07-23T00:51:29;100402.84;;;19.90;100.00
20145;BME280;10233;50.814;6.590;2022-07-23T00:52:31;100405.50;;;19.85;100.00
20145;BME280;10233;50.814;6.590;2022-07-23T00:53:32;100405.09;;;19.72;100.00
20145;BME280;10233;50.814;6.590;2022-07-23T00:54:32;100405.13;;;19.45;100.00
20145;BME280;10233;50.814;6.590;2022-07-23T00:55:33;100407.31;;;19.48;100.00
20145;BME280;10233;50.814;6.590;2022-07-23T00:56:34;100413.75;;;19.42;100.00
20145;BME280;10233;50.814;6.590;2022-07-23T00:57:35;100411.50;;;19.34;100.00
20145;BME280;10233;50.814;6.590;2022-07-23T00:58:36;100404.44;;;19.28;100.00
20145;BME280;10233;50.814;6.590;2022-07-23T00:59:39;100403.31;;;19.24;100.00
20145;BME280;10233;50.814;6.590;2022-07-23T01:00:39;100397.00;;;19.19;100.00
20145;BME280;10233;50.814;6.590;2022-07-23T01:01:40;100393.50;;;19.18;100.00
20145;BME280;10233;50.814;6.590;2022-07-23T01:02:42;100397.28;;;19.17;100.00
20145;BME280;10233;50.814;6.590;2022-07-23T01:03:42;100392.44;;;19.19;100.00
20145;BME280;10233;50.814;6.590;2022-07-23T01:04:43;100392.44;;;19.19;100.00
20145;BME280;10233;50.814;6.590;2022-07-23T01:05:44;100400.84;;;19.23;100.00
20145;BME280;10233;50.814;6.590;2022-07-23T01:06:45;100399.53;;;19.25;100.00
20145;BME280;10233;50.814;6.590;2022-07-23T01:07:45;100396.03;;;19.25;100.00
20145;BME280;10233;50.814;6.590;2022-07-23T01:08:48;100389.00;;;19.24;100.00
20145;BME280;10233;50.814;6.590;2022-07-23T01:09:48;100389.31;;;19.27;100.00
20145;BME280;10233;50.814;6.590;2022-07-23T01:10:50;100389.97;;;19.39;100.00
20145;BME280;10233;50.814;6.590;2022-07-23T01:11:54;100392.78;;;19.54;100.00
20145;BME280;10233;50.814;6.590;2022-07-23T01:12:55;100398.56;;;19.68;100.00
20145;BME280;10233;50.814;6.590;2022-07-23T01:13:55;100395.13;;;19.72;100.00
20145;BME280;10233;50.814;6.590;2022-07-23T01:14:57;100383.50;;;19.72;100.00
20145;BME280;10233;50.814;6.590;2022-07-23T01:15:59;100394.63;;;19.75;100.00
20145;BME280;10233;50.814;6.590;2022-07-23T01:17:00;100392.66;;;19.71;100.00
20145;BME280;10233;50.814;6.590;2022-07-23T01:18:03;100390.47;;;19.68;100.00
20145;BME280;10233;50.814;6.590;2022-07-23T01:19:04;100392.88;;;19.64;100.00
20145;BME280;10233;50.814;6.590;2022-07-23T01:20:07;100390.38;;;19.58;100.00
20145;BME280;10233;50.814;6.590;2022-07-23T01:21:10;100400.13;;;19.59;100.00
20145;BME280;10233;50.814;6.590;2022-07-23T01:22:14;100399.31;;;19.58;100.00
20145;BME280;10233;50.814;6.590;2022-07-23T01:23:15;100398.16;;;19.49;100.00
20145;BME280;10233;50.814;6.590;2022-07-23T01:24:20;100401.38;;;19.46;100.00
20145;BME280;10233;50.814;6.590;2022-07-23T01:25:32;100401.06;;;19.43;100.00
20145;BME280;10233;50.814;6.590;2022-07-23T01:26:38;100395.59;;;19.38;100.00
20145;BME280;10233;50.814;6.590;2022-07-23T01:27:39;100402.84;;;19.32;100.00
20145;BME280;10233;50.814;6.590;2022-07-23T01:28:39;100396.38;;;19.33;100.00
20145;BME280;10233;50.814;6.590;2022-07-23T01:29:40;100394.19;;;19.30;100.00
20145;BME280;10233;50.814;6.590;2022-07-23T01:30:51;100395.22;;;19.24;100.00
20145;BME280;10233;50.814;6.590;2022-07-23T01:31:52;100391.13;;;19.22;100.00
20145;BME280;10233;50.814;6.590;2022-07-23T01:32:52;100391.34;;;19.20;100.00
20145;BME280;10233;50.814;6.590;2022-07-23T01:33:53;100391.34;;;19.20;100.00
20145;BME280;10233;50.814;6.590;2022-07-23T01:34:54;100384.09;;;19.21;100.00
20145;BME280;10233;50.814;6.590;2022-07-23T01:35:54;100391.97;;;19.22;100.00
20145;BME280;10233;50.814;6.590;2022-07-23T01:36:58;100380.28;;;19.17;100.00
20145;BME280;10233;50.814;6.590;2022-07-23T01:37:59;100379.72;;;19.15;100.00
20145;BME280;10233;50.814;6.590;2022-07-23T01:38:59;100380.22;;;19.12;100.00
20145;BME280;10233;50.814;6.590;2022-07-23T01:40:00;100375.66;;;19.12;100.00
20145;BME280;10233;50.814;6.590;2022-07-23T01:41:01;100383.41;;;19.09;100.00
20145;BME280;10233;50.814;6.590;2022-07-23T01:42:05;100386.09;;;19.09;100.00
20145;BME280;10233;50.814;6.590;2022-07-23T01:43:06;100382.81;;;19.02;100.00
20145;BME280;10233;50.814;6.590;2022-07-23T01:44:08;100389.03;;;19.02;100.00
20145;BME280;10233;50.814;6.590;2022-07-23T01:45:10;100380.56;;;18.94;100.00
20145;BME280;10233;50.814;6.590;2022-07-23T01:46:14;100382.13;;;18.90;100.00
20145;BME280;10233;50.814;6.590;2022-07-23T01:47:18;100386.34;;;18.81;100.00
20145;BME280;10233;50.814;6.590;2022-07-23T01:48:20;100371.75;;;18.77;100.00
20145;BME280;10233;50.814;6.590;2022-07-23T01:49:36;100377.69;;;18.79;100.00
20145;BME280;10233;50.814;6.590;2022-07-23T01:50:37;100376.25;;;18.71;100.00
20145;BME280;10233;50.814;6.590;2022-07-23T01:51:54;100369.44;;;18.64;100.00
20145;BME280;10233;50.814;6.590;2022-07-23T01:53:20;100371.50;;;18.57;100.00
20145;BME280;10233;50.814;6.590;2022-07-23T01:54:21;100378.94;;;18.50;100.00
20145;BME280;10233;50.814;6.590;2022-07-23T01:55:21;100386.09;;;18.39;100.00
20145;BME280;10233;50.814;6.590;2022-07-23T01:56:23;100378.50;;;18.36;100.00
20145;BME280;10233;50.814;6.590;2022-07-23T01:57:24;100375.25;;;18.34;100.00
20145;BME280;10233;50.814;6.590;2022-07-23T01:58:25;100374.31;;;18.29;100.00
20145;BME280;10233;50.814;6.590;2022-07-23T01:59:26;100374.25;;;18.24;100.00
20145;BME280;10233;50.814;6.590;2022-07-23T02:00:30;100374.44;;;18.17;100.00
20145;BME280;10233;50.814;6.590;2022-07-23T02:01:30;100375.50;;;18.16;100.00
20145;BME280;10233;50.814;6.590;2022-07-23T02:02:31;100377.06;;;18.12;100.00
20145;BME280;10233;50.814;6.590;2022-07-23T02:03:32;100368.66;;;18.09;100.00
20145;BME280;10233;50.814;6.590;2022-07-23T02:04:32;100378.06;;;18.06;100.00
20145;BME280;10233;50.814;6.590;2022-07-23T02:05:36;100372.84;;;18.00;100.00
20145;BME280;10233;50.814;6.590;2022-07-23T02:06:37;100374.69;;;17.99;100.00
20145;BME280;10233;50.814;6.590;2022-07-23T02:07:38;100383.59;;;18.00;100.00
20145;BME280;10233;50.814;6.590;2022-07-23T02:08:38;100367.13;;;17.96;100.00
20145;BME280;10233;50.814;6.590;2022-07-23T02:09:39;100372.53;;;17.96;100.00
20145;BME280;10233;50.814;6.590;2022-07-23T02:10:39;100371.94;;;17.94;100.00
20145;BME280;10233;50.814;6.590;2022-07-23T02:11:40;100373.50;;;17.90;100.00
20145;BME280;10233;50.814;6.590;2022-07-23T02:12:41;100371.06;;;17.89;100.00
20145;BME280;10233;50.814;6.590;2022-07-23T02:13:43;100366.16;;;17.86;100.00
20145;BME280;10233;50.814;6.590;2022-07-23T02:14:44;100360.47;;;17.82;100.00
20145;BME280;10233;50.814;6.590;2022-07-23T02:15:46;100363.38;;;17.81;100.00
20145;BME280;10233;50.814;6.590;2022-07-23T02:16:49;100360.38;;;17.77;100.00
20145;BME280;10233;50.814;6.590;2022-07-23T02:17:49;100372.22;;;17.76;100.00
20145;BME280;10233;50.814;6.590;2022-07-23T02:18:50;100358.16;;;17.74;100.00
20145;BME280;10233;50.814;6.590;2022-07-23T02:19:50;100374.47;;;17.68;100.00
20145;BME280;10233;50.814;6.590;2022-07-23T02:20:51;100370.41;;;17.65;100.00
20145;BME280;10233;50.814;6.590;2022-07-23T02:21:51;100369.28;;;17.61;100.00
20145;BME280;10233;50.814;6.590;2022-07-23T02:22:53;100368.13;;;17.57;100.00
20145;BME280;10233;50.814;6.590;2022-07-23T02:23:53;100369.19;;;17.56;100.00
20145;BME280;10233;50.814;6.590;2022-07-23T02:24:54;100362.44;;;17.54;100.00
20145;BME280;10233;50.814;6.590;2022-07-23T02:25:55;100365.38;;;17.52;100.00
20145;BME280;10233;50.814;6.590;2022-07-23T02:26:55;100372.84;;;17.50;100.00
20145;BME280;10233;50.814;6.590;2022-07-23T02:27:56;100358.84;;;17.48;100.00
20145;BME280;10233;50.814;6.590;2022-07-23T02:28:59;100363.66;;;17.46;100.00
20145;BME280;10233;50.814;6.590;2022-07-23T02:30:00;100361.75;;;17.47;100.00
20145;BME280;10233;50.814;6.590;2022-07-23T02:31:00;100359.31;;;17.45;100.00
20145;BME280;10233;50.814;6.590;2022-07-23T02:32:01;100361.44;;;17.43;100.00
20145;BME280;10233;50.814;6.590;2022-07-23T02:33:02;100357.13;;;17.42;100.00
20145;BME280;10233;50.814;6.590;2022-07-23T02:34:03;100366.25;;;17.41;100.00
20145;BME280;10233;50.814;6.590;2022-07-23T02:35:04;100362.19;;;17.39;100.00
20145;BME280;10233;50.814;6.590;2022-07-23T02:36:05;100368.84;;;17.36;100.00
20145;BME280;10233;50.814;6.590;2022-07-23T02:37:09;100367.75;;;17.37;100.00
20145;BME280;10233;50.814;6.590;2022-07-23T02:38:10;100369.88;;;17.35;100.00
20145;BME280;10233;50.814;6.590;2022-07-23T02:39:10;100369.31;;;17.33;100.00
20145;BME280;10233;50.814;6.590;2022-07-23T02:40:12;100369.88;;;17.35;100.00
20145;BME280;10233;50.814;6.590;2022-07-23T02:41:14;100379.81;;;17.35;100.00
20145;BME280;10233;50.814;6.590;2022-07-23T02:42:15;100377.38;;;17.33;100.00
20145;BME280;10233;50.814;6.590;2022-07-23T02:43:17;100385.09;;;17.30;100.00
20145;BME280;10233;50.814;6.590;2022-07-23T02:44:18;100387.25;;;17.44;100.00
20145;BME280;10233;50.814;6.590;2022-07-23T02:45:23;100383.81;;;17.32;100.00
20145;BME280;10233;50.814;6.590;2022-07-23T02:46:24;100381.72;;;17.23;100.00
20145;BME280;10233;50.814;6.590;2022-07-23T02:47:25;100384.34;;;17.18;100.00
20145;BME280;10233;50.814;6.590;2022-07-23T02:48:25;100388.56;;;17.14;100.00
20145;BME280;10233;50.814;6.590;2022-07-23T02:49:26;100381.69;;;17.06;100.00
20145;BME280;10233;50.814;6.590;2022-07-23T02:50:26;100385.94;;;17.02;100.00
20145;BME280;10233;50.814;6.590;2022-07-23T02:51:30;100390.16;;;16.98;100.00
20145;BME280;10233;50.814;6.590;2022-07-23T02:52:35;100385.72;;;16.92;100.00
20145;BME280;10233;50.814;6.590;2022-07-23T02:53:36;100388.91;;;16.89;100.00
20145;BME280;10233;50.814;6.590;2022-07-23T02:54:37;100389.97;;;16.88;100.00
20145;BME280;10233;50.814;6.590;2022-07-23T02:55:38;100384.00;;;16.86;100.00
20145;BME280;10233;50.814;6.590;2022-07-23T02:56:38;100388.31;;;16.87;100.00
20145;BME280;10233;50.814;6.590;2022-07-23T02:57:39;100380.25;;;16.87;100.00
20145;BME280;10233;50.814;6.590;2022-07-23T02:58:39;100390.63;;;16.95;100.00
20145;BME280;10233;50.814;6.590;2022-07-23T02:59:40;100392.75;;;16.93;100.00
20145;BME280;10233;50.814;6.590;2022-07-23T03:00:40;100396.47;;;16.92;100.00
20145;BME280;10233;50.814;6.590;2022-07-23T03:01:41;100393.22;;;16.90;100.00
20145;BME280;10233;50.814;6.590;2022-07-23T03:02:42;100395.56;;;16.87;100.00
20145;BME280;10233;50.814;6.590;2022-07-23T03:03:42;100395.47;;;16.82;100.00
20145;BME280;10233;50.814;6.590;2022-07-23T03:04:43;100396.16;;;16.77;100.00
20145;BME280;10233;50.814;6.590;2022-07-23T03:05:45;100393.97;;;16.74;100.00
20145;BME280;10233;50.814;6.590;2022-07-23T03:06:46;100386.97;;;16.73;100.00
20145;BME280;10233;50.814;6.590;2022-07-23T03:07:46;100390.47;;;16.74;100.00
20145;BME280;10233;50.814;6.590;2022-07-23T03:08:47;100390.47;;;16.74;100.00
20145;BME280;10233;50.814;6.590;2022-07-23T03:09:47;100393.97;;;16.74;100.00
20145;BME280;10233;50.814;6.590;2022-07-23T03:10:48;100385.09;;;16.74;100.00
20145;BME280;10233;50.814;6.590;2022-07-23T03:11:48;100391.28;;;16.74;100.00
20145;BME280;10233;50.814;6.590;2022-07-23T03:12:49;100391.53;;;16.73;100.00
20145;BME280;10233;50.814;6.590;2022-07-23T03:13:49;100398.84;;;16.77;100.00
20145;BME280;10233;50.814;6.590;2022-07-23T03:14:50;100388.22;;;16.82;100.00
20145;BME280;10233;50.814;6.590;2022-07-23T03:15:50;100393.84;;;16.81;100.00
20145;BME280;10233;50.814;6.590;2022-07-23T03:16:53;100396.75;;;16.79;100.00
20145;BME280;10233;50.814;6.590;2022-07-23T03:17:54;100397.09;;;16.83;100.00
20145;BME280;10233;50.814;6.590;2022-07-23T03:18:55;100394.66;;;16.81;100.00
20145;BME280;10233;50.814;6.590;2022-07-23T03:19:55;100397.81;;;16.78;100.00
20145;BME280;10233;50.814;6.590;2022-07-23T03:20:57;100395.13;;;16.78;100.00
20145;BME280;10233;50.814;6.590;2022-07-23T03:21:58;100392.91;;;16.75;100.00
20145;BME280;10233;50.814;6.590;2022-07-23T03:22:58;100404.72;;;16.74;100.00
20145;BME280;10233;50.814;6.590;2022-07-23T03:23:59;100399.34;;;16.74;100.00
20145;BME280;10233;50.814;6.590;2022-07-23T03:25:00;100392.00;;;16.70;100.00
20145;BME280;10233;50.814;6.590;2022-07-23T03:26:08;100399.25;;;16.69;100.00
20145;BME280;10233;50.814;6.590;2022-07-23T03:27:08;100396.91;;;16.73;100.00
20145;BME280;10233;50.814;6.590;2022-07-23T03:28:10;100397.72;;;16.73;100.00
20145;BME280;10233;50.814;6.590;2022-07-23T03:29:10;100396.44;;;16.76;100.00
20145;BME280;10233;50.814;6.590;2022-07-23T03:30:11;100396.06;;;16.72;100.00
20145;BME280;10233;50.814;6.590;2022-07-23T03:31:12;100392.34;;;16.73;100.00
20145;BME280;10233;50.814;6.590;2022-07-23T03:32:13;100399.81;;;16.71;100.00
20145;BME280;10233;50.814;6.590;2022-07-23T03:33:15;100400.63;;;16.72;100.00
20145;BME280;10233;50.814;6.590;2022-07-23T03:34:17;100398.84;;;16.77;100.00
20145;BME280;10233;50.814;6.590;2022-07-23T03:35:18;100401.69;;;16.71;100.00
20145;BME280;10233;50.814;6.590;2022-07-23T03:36:27;100390.69;;;16.72;100.00
20145;BME280;10233;50.814;6.590;2022-07-23T03:37:29;100394.94;;;16.68;100.00
20145;BME280;10233;50.814;6.590;2022-07-23T03:38:32;100391.75;;;16.71;100.00
20145;BME280;10233;50.814;6.590;2022-07-23T03:39:32;100389.06;;;16.71;100.00
20145;BME280;10233;50.814;6.590;2022-07-23T03:40:33;100386.88;;;16.68;100.00
20145;BME280;10233;50.814;6.590;2022-07-23T03:41:33;100391.09;;;16.64;100.00
20145;BME280;10233;50.814;6.590;2022-07-23T03:42:34;100389.56;;;16.68;100.00
20145;BME280;10233;50.814;6.590;2022-07-23T03:43:37;100392.34;;;16.73;100.00
20145;BME280;10233;50.814;6.590;2022-07-23T03:44:37;100390.47;;;16.74;100.00
20145;BME280;10233;50.814;6.590;2022-07-23T03:45:38;100386.88;;;16.68;100.00
20145;BME280;10233;50.814;6.590;2022-07-23T03:46:39;100387.09;;;16.67;100.00
20145;BME280;10233;50.814;6.590;2022-07-23T03:47:40;100393.03;;;16.69;100.00
20145;BME280;10233;50.814;6.590;2022-07-23T03:48:40;100390.59;;;16.67;100.00
20145;BME280;10233;50.814;6.590;2022-07-23T03:49:41;100392.25;;;16.68;100.00
20145;BME280;10233;50.814;6.590;2022-07-23T03:50:41;100390.59;;;16.67;100.00
20145;BME280;10233;50.814;6.590;2022-07-23T03:51:42;100394.22;;;16.73;100.00
20145;BME280;10233;50.814;6.590;2022-07-23T03:52:42;100389.41;;;16.75;100.00
20145;BME280;10233;50.814;6.590;2022-07-23T03:53:43;100393.97;;;16.74;100.00
20145;BME280;10233;50.814;6.590;2022-07-23T03:54:43;100384.53;;;16.72;100.00
20145;BME280;10233;50.814;6.590;2022-07-23T03:55:43;100395.16;;;16.67;100.00
20145;BME280;10233;50.814;6.590;2022-07-23T03:56:44;100387.91;;;16.67;100.00
20145;BME280;10233;50.814;6.590;2022-07-23T03:57:44;100389.56;;;16.68;100.00
20145;BME280;10233;50.814;6.590;2022-07-23T03:58:45;100388.88;;;16.61;100.00
20145;BME280;10233;50.814;6.590;2022-07-23T03:59:45;100392.47;;;16.67;100.00
20145;BME280;10233;50.814;6.590;2022-07-23T04:00:46;100392.81;;;16.70;100.00
20145;BME280;10233;50.814;6.590;2022-07-23T04:01:47;100397.84;;;16.67;100.00
20145;BME280;10233;50.814;6.590;2022-07-23T04:02:48;100398.66;;;16.67;100.00
20145;BME280;10233;50.814;6.590;2022-07-23T04:03:48;100395.28;;;16.72;100.00
20145;BME280;10233;50.814;6.590;2022-07-23T04:04:49;100390.97;;;16.71;100.00
20145;BME280;10233;50.814;6.590;2022-07-23T04:05:50;100388.75;;;16.68;100.00
20145;BME280;10233;50.814;6.590;2022-07-23T04:06:50;100396.56;;;16.69;100.00
20145;BME280;10233;50.814;6.590;2022-07-23T04:07:51;100393.66;;;16.71;100.00
20145;BME280;10233;50.814;6.590;2022-07-23T04:08:52;100393.38;;;16.72;100.00
20145;BME280;10233;50.814;6.590;2022-07-23T04:09:53;100400.97;;;16.75;100.00
20145;BME280;10233;50.814;6.590;2022-07-23T04:10:54;100397.56;;;16.80;100.00
20145;BME280;10233;50.814;6.590;2022-07-23T04:11:56;100397.09;;;16.83;100.00
20145;BME280;10233;50.814;6.590;2022-07-23T04:12:56;100400.59;;;16.83;100.00
20145;BME280;10233;50.814;6.590;2022-07-23T04:13:58;100398.38;;;16.80;100.00
20145;BME280;10233;50.814;6.590;2022-07-23T04:14:58;100400.59;;;16.83;100.00
20145;BME280;10233;50.814;6.590;2022-07-23T04:15:59;100401.41;;;16.84;100.00
20145;BME280;10233;50.814;6.590;2022-07-23T04:16:59;100402.47;;;16.83;100.00
20145;BME280;10233;50.814;6.590;2022-07-23T04:18:00;100398.38;;;16.80;100.00
20145;BME280;10233;50.814;6.590;2022-07-23T04:19:10;100393.47;;;16.77;100.00
20145;BME280;10233;50.814;6.590;2022-07-23T04:20:22;100397.31;;;16.81;100.00
20145;BME280;10233;50.814;6.590;2022-07-23T04:21:29;100401.84;;;16.92;100.00
20145;BME280;10233;50.814;6.590;2022-07-23T04:22:29;100404.06;;;16.95;100.00
20145;BME280;10233;50.814;6.590;2022-07-23T04:23:30;100400.81;;;16.93;100.00
20145;BME280;10233;50.814;6.590;2022-07-23T04:24:31;100409.34;;;16.90;100.00
20145;BME280;10233;50.814;6.590;2022-07-23T04:25:32;100403.72;;;16.92;100.00
20145;BME280;10233;50.814;6.590;2022-07-23T04:26:32;100405.94;;;16.95;100.00
20145;BME280;10233;50.814;6.590;2022-07-23T04:27:33;100404.06;;;16.95;100.00
20145;BME280;10233;50.814;6.590;2022-07-23T04:28:33;100413.03;;;17.01;100.00
20145;BME280;10233;50.814;6.590;2022-07-23T04:29:35;100408.25;;;17.03;100.00
20145;BME280;10233;50.814;6.590;2022-07-23T04:30:36;100416.06;;;17.04;100.00
20145;BME280;10233;50.814;6.590;2022-07-23T04:31:37;100412.31;;;17.05;100.00
20145;BME280;10233;50.814;6.590;2022-07-23T04:32:37;100421.19;;;17.06;100.00
20145;BME280;10233;50.814;6.590;2022-07-23T04:33:45;100418.63;;;17.11;100.00
20145;BME280;10233;50.814;6.590;2022-07-23T04:34:46;100416.16;;;17.09;100.00
20145;BME280;10233;50.814;6.590;2022-07-23T04:35:47;100419.41;;;17.11;100.00
20145;BME280;10233;50.814;6.590;2022-07-23T04:36:53;100430.75;;;17.13;100.00
20145;BME280;10233;50.814;6.590;2022-07-23T04:37:54;100429.22;;;17.17;100.00
20145;BME280;10233;50.814;6.590;2022-07-23T04:38:55;100429.78;;;17.19;100.00
20145;BME280;10233;50.814;6.590;2022-07-23T04:39:55;100436.00;;;17.20;100.00
20145;BME280;10233;50.814;6.590;2022-07-23T04:40:58;100435.25;;;17.24;100.00
20145;BME280;10233;50.814;6.590;2022-07-23T04:42:00;100441.47;;;17.25;100.00
20145;BME280;10233;50.814;6.590;2022-07-23T04:43:01;100440.50;;;17.31;100.00
20145;BME280;10233;50.814;6.590;2022-07-23T04:44:02;100439.44;;;17.32;100.00
20145;BME280;10233;50.814;6.590;2022-07-23T04:45:03;100439.28;;;17.38;100.00
20145;BME280;10233;50.814;6.590;2022-07-23T04:46:04;100436.59;;;17.38;100.00
20145;BME280;10233;50.814;6.590;2022-07-23T04:47:10;100443.72;;;17.44;100.00
20145;BME280;10233;50.814;6.590;2022-07-23T04:48:11;100444.22;;;17.41;100.00
20145;BME280;10233;50.814;6.590;2022-07-23T04:49:12;100449.59;;;17.41;100.00
20145;BME280;10233;50.814;6.590;2022-07-23T04:50:13;100444.88;;;17.48;100.00
20145;BME280;10233;50.814;6.590;2022-07-23T04:51:17;100445.81;;;17.54;100.00
20145;BME280;10233;50.814;6.590;2022-07-23T04:52:18;100451.50;;;17.57;100.00
20145;BME280;10233;50.814;6.590;2022-07-23T04:53:18;100452.16;;;17.64;100.00
20145;BME280;10233;50.814;6.590;2022-07-23T04:54:21;100457.63;;;17.69;100.00
20145;BME280;10233;50.814;6.590;2022-07-23T04:55:21;100457.16;;;17.72;100.00
20145;BME280;10233;50.814;6.590;2022-07-23T04:56:23;100453.47;;;17.78;100.00
20145;BME280;10233;50.814;6.590;2022-07-23T04:57:23;100455.78;;;17.86;100.00
20145;BME280;10233;50.814;6.590;2022-07-23T04:58:24;100447.56;;;17.93;100.00
20145;BME280;10233;50.814;6.590;2022-07-23T04:59:24;100459.69;;;17.95;100.00
20145;BME280;10233;50.814;6.590;2022-07-23T05:00:32;100453.41;;;18.06;100.00
20145;BME280;10233;50.814;6.590;2022-07-23T05:01:33;100455.72;;;18.14;100.00
20145;BME280;10233;50.814;6.590;2022-07-23T05:02:33;100456.81;;;18.18;100.00
20145;BME280;10233;50.814;6.590;2022-07-23T05:03:34;100449.41;;;18.25;100.00
20145;BME280;10233;50.814;6.590;2022-07-23T05:04:35;100449.00;;;18.33;100.00
20145;BME280;10233;50.814;6.590;2022-07-23T05:05:36;100448.41;;;18.31;100.00
20145;BME280;10233;50.814;6.590;2022-07-23T05:06:44;100455.03;;;18.40;100.00
20145;BME280;10233;50.814;6.590;2022-07-23T05:07:44;100446.53;;;18.48;100.00
20145;BME280;10233;50.814;6.590;2022-07-23T05:08:45;100456.31;;;18.54;100.00
20145;BME280;10233;50.814;6.590;2022-07-23T05:09:46;100452.69;;;18.65;100.00
20145;BME280;10233;50.814;6.590;2022-07-23T05:10:47;100447.38;;;18.70;100.00
20145;BME280;10233;50.814;6.590;2022-07-23T05:11:48;100445.81;;;18.74;100.00
20145;BME280;10233;50.814;6.590;2022-07-23T05:12:48;100444.31;;;18.83;100.00
20145;BME280;10233;50.814;6.590;2022-07-23T05:13:49;100446.00;;;18.89;100.00
20145;BME280;10233;50.814;6.590;2022-07-23T05:14:49;100439.41;;;19.02;100.00
20145;BME280;10233;50.814;6.590;2022-07-23T05:15:50;100444.56;;;19.03;100.00
20145;BME280;10233;50.814;6.590;2022-07-23T05:16:51;100439.72;;;19.05;100.00
20145;BME280;10233;50.814;6.590;2022-07-23T05:17:56;100442.00;;;19.13;100.00
20145;BME280;10233;50.814;6.590;2022-07-23T05:18:57;100452.31;;;19.21;100.00